sensor_id;sensor_type;location;lat;lon;timestamp;P1;durP1;ratioP1;P2;durP2;ratioP2
40122;SDS011;25832;45.490;4.912;2022-10-16T00:00:40;4.40;;;2.42;;
40122;SDS011;25832;45.490;4.912;2022-10-16T00:03:07;8.07;;;3.22;;
40122;SDS011;25832;45.490;4.912;2022-10-16T00:05:37;6.22;;;2.47;;
40122;SDS011;25832;45.490;4.912;2022-10-16T00:08:05;3.15;;;2.50;;
40122;SDS011;25832;45.490;4.912;2022-10-16T00:10:31;3.30;;;2.38;;
40122;SDS011;25832;45.490;4.912;2022-10-16T00:12:57;5.47;;;2.85;;
40122;SDS011;25832;45.490;4.912;2022-10-16T00:15:22;5.57;;;3.03;;
40122;SDS011;25832;45.490;4.912;2022-10-16T00:17:48;4.35;;;2.85;;
40122;SDS011;25832;45.490;4.912;2022-10-16T00:20:13;4.78;;;2.53;;
40122;SDS011;25832;45.490;4.912;2022-10-16T00:22:39;5.50;;;2.90;;
40122;SDS011;25832;45.490;4.912;2022-10-16T00:25:05;4.45;;;3.00;;
40122;SDS011;25832;45.490;4.912;2022-10-16T00:27:31;5.05;;;2.67;;
40122;SDS011;25832;45.490;4.912;2022-10-16T00:29:57;5.50;;;2.65;;
40122;SDS011;25832;45.490;4.912;2022-10-16T00:32:23;5.60;;;2.88;;
40122;SDS011;25832;45.490;4.912;2022-10-16T00:34:48;8.00;;;3.03;;
40122;SDS011;25832;45.490;4.912;2022-10-16T00:37:14;4.50;;;2.80;;
40122;SDS011;25832;45.490;4.912;2022-10-16T00:39:40;4.45;;;2.70;;
40122;SDS011;25832;45.490;4.912;2022-10-16T00:42:05;4.53;;;3.25;;
40122;SDS011;25832;45.490;4.912;2022-10-16T00:44:48;6.38;;;2.63;;
40122;SDS011;25832;45.490;4.912;2022-10-16T00:47:18;4.28;;;2.40;;
40122;SDS011;25832;45.490;4.912;2022-10-16T00:49:51;4.63;;;2.72;;
40122;SDS011;25832;45.490;4.912;2022-10-16T00:54:47;3.83;;;2.65;;
40122;SDS011;25832;45.490;4.912;2022-10-16T00:57:15;5.68;;;3.38;;
40122;SDS011;25832;45.490;4.912;2022-10-16T00:59:41;3.88;;;2.53;;
40122;SDS011;25832;45.490;4.912;2022-10-16T01:02:09;6.10;;;3.22;;
40122;SDS011;25832;45.490;4.912;2022-10-16T01:04:38;3.85;;;2.42;;
40122;SDS011;25832;45.490;4.912;2022-10-16T01:12:40;5.25;;;3.33;;
40122;SDS011;25832;45.490;4.912;2022-10-16T01:15:29;8.40;;;3.00;;
40122;SDS011;25832;45.490;4.912;2022-10-16T01:18:04;5.80;;;3.75;;
40122;SDS011;25832;45.490;4.912;2022-10-16T01:20:42;6.40;;;2.97;;
40122;SDS011;25832;45.490;4.912;2022-10-16T01:28:22;5.18;;;2.90;;
40122;SDS011;25832;45.490;4.912;2022-10-16T01:30:52;7.90;;;3.63;;
40122;SDS011;25832;45.490;4.912;2022-10-16T01:35:52;4.85;;;3.08;;
40122;SDS011;25832;45.490;4.912;2022-10-16T01:38:26;4.90;;;3.00;;
40122;SDS011;25832;45.490;4.912;2022-10-16T01:41:01;8.23;;;3.22;;
40122;SDS011;25832;45.490;4.912;2022-10-16T01:43:39;9.57;;;3.28;;
40122;SDS011;25832;45.490;4.912;2022-10-16T01:46:11;4.40;;;2.90;;
40122;SDS011;25832;45.490;4.912;2022-10-16T01:48:40;7.90;;;3.28;;
40122;SDS011;25832;45.490;4.912;2022-10-16T01:51:07;6.05;;;2.40;;
40122;SDS011;25832;45.490;4.912;2022-10-16T01:53:37;5.47;;;3.72;;
40122;SDS011;25832;45.490;4.912;2022-10-16T01:56:04;5.25;;;3.50;;
40122;SDS011;25832;45.490;4.912;2022-10-16T01:58:35;4.95;;;3.17;;
40122;SDS011;25832;45.490;4.912;2022-10-16T02:01:07;10.77;;;3.72;;
40122;SDS011;25832;45.490;4.912;2022-10-16T02:03:36;9.68;;;3.55;;
40122;SDS011;25832;45.490;4.912;2022-10-16T02:06:06;6.85;;;3.35;;
40122;SDS011;25832;45.490;4.912;2022-10-16T02:08:32;5.25;;;3.22;;
40122;SDS011;25832;45.490;4.912;2022-10-16T02:10:59;5.90;;;2.80;;
40122;SDS011;25832;45.490;4.912;2022-10-16T02:13:33;7.70;;;3.58;;
40122;SDS011;25832;45.490;4.912;2022-10-16T02:16:08;5.50;;;3.13;;
40122;SDS011;25832;45.490;4.912;2022-10-16T02:18:35;5.72;;;2.70;;
40122;SDS011;25832;45.490;4.912;2022-10-16T02:21:02;11.57;;;3.15;;
40122;SDS011;25832;45.490;4.912;2022-10-16T02:23:45;8.93;;;3.75;;
40122;SDS011;25832;45.490;4.912;2022-10-16T02:26:47;7.00;;;3.33;;
40122;SDS011;25832;45.490;4.912;2022-10-16T02:29:17;6.40;;;3.38;;
40122;SDS011;25832;45.490;4.912;2022-10-16T02:31:46;8.50;;;4.72;;
40122;SDS011;25832;45.490;4.912;2022-10-16T02:34:16;5.50;;;3.70;;
40122;SDS011;25832;45.490;4.912;2022-10-16T02:36:44;6.03;;;3.47;;
40122;SDS011;25832;45.490;4.912;2022-10-16T02:39:11;6.13;;;3.35;;
40122;SDS011;25832;45.490;4.912;2022-10-16T02:41:37;5.82;;;4.32;;
40122;SDS011;25832;45.490;4.912;2022-10-16T02:44:03;8.27;;;3.42;;
40122;SDS011;25832;45.490;4.912;2022-10-16T02:46:29;6.60;;;3.30;;
40122;SDS011;25832;45.490;4.912;2022-10-16T02:48:54;5.50;;;3.38;;
40122;SDS011;25832;45.490;4.912;2022-10-16T02:51:20;8.38;;;4.18;;
40122;SDS011;25832;45.490;4.912;2022-10-16T02:53:46;5.03;;;3.88;;
40122;SDS011;25832;45.490;4.912;2022-10-16T02:56:11;7.45;;;3.92;;
40122;SDS011;25832;45.490;4.912;2022-10-16T02:58:37;10.63;;;4.20;;
40122;SDS011;25832;45.490;4.912;2022-10-16T03:01:03;6.65;;;3.88;;
40122;SDS011;25832;45.490;4.912;2022-10-16T03:03:28;6.00;;;3.95;;
40122;SDS011;25832;45.490;4.912;2022-10-16T03:05:54;5.32;;;3.58;;
40122;SDS011;25832;45.490;4.912;2022-10-16T03:08:20;7.43;;;4.07;;
40122;SDS011;25832;45.490;4.912;2022-10-16T03:10:48;9.63;;;4.82;;
40122;SDS011;25832;45.490;4.912;2022-10-16T03:13:14;6.55;;;4.88;;
40122;SDS011;25832;45.490;4.912;2022-10-16T03:15:40;5.90;;;4.05;;
40122;SDS011;25832;45.490;4.912;2022-10-16T03:18:06;8.60;;;4.43;;
40122;SDS011;25832;45.490;4.912;2022-10-16T03:20:32;6.05;;;4.35;;
40122;SDS011;25832;45.490;4.912;2022-10-16T03:22:58;7.75;;;4.40;;
40122;SDS011;25832;45.490;4.912;2022-10-16T03:25:23;9.02;;;5.20;;
40122;SDS011;25832;45.490;4.912;2022-10-16T03:27:49;7.65;;;4.25;;
40122;SDS011;25832;45.490;4.912;2022-10-16T03:30:15;10.85;;;5.80;;
40122;SDS011;25832;45.490;4.912;2022-10-16T03:32:41;9.20;;;6.07;;
40122;SDS011;25832;45.490;4.912;2022-10-16T03:35:08;12.98;;;5.78;;
40122;SDS011;25832;45.490;4.912;2022-10-16T03:37:34;11.18;;;5.45;;
40122;SDS011;25832;45.490;4.912;2022-10-16T03:40:00;8.88;;;5.60;;
40122;SDS011;25832;45.490;4.912;2022-10-16T03:42:26;10.05;;;5.88;;
40122;SDS011;25832;45.490;4.912;2022-10-16T03:44:51;7.82;;;5.13;;
40122;SDS011;25832;45.490;4.912;2022-10-16T03:47:17;10.27;;;5.85;;
40122;SDS011;25832;45.490;4.912;2022-10-16T03:49:46;6.10;;;5.15;;
40122;SDS011;25832;45.490;4.912;2022-10-16T03:52:12;7.55;;;5.68;;
40122;SDS011;25832;45.490;4.912;2022-10-16T03:54:38;8.20;;;5.80;;
40122;SDS011;25832;45.490;4.912;2022-10-16T03:57:04;10.88;;;6.43;;
40122;SDS011;25832;45.490;4.912;2022-10-16T03:59:29;10.07;;;5.68;;
40122;SDS011;25832;45.490;4.912;2022-10-16T04:01:55;12.68;;;6.07;;
40122;SDS011;25832;45.490;4.912;2022-10-16T04:04:21;9.57;;;5.88;;
40122;SDS011;25832;45.490;4.912;2022-10-16T04:06:46;9.93;;;6.07;;
40122;SDS011;25832;45.490;4.912;2022-10-16T04:09:12;10.55;;;6.88;;
40122;SDS011;25832;45.490;4.912;2022-10-16T04:11:38;17.38;;;7.20;;
40122;SDS011;25832;45.490;4.912;2022-10-16T04:14:04;8.73;;;6.70;;
40122;SDS011;25832;45.490;4.912;2022-10-16T04:16:29;11.38;;;6.35;;
40122;SDS011;25832;45.490;4.912;2022-10-16T04:18:55;10.73;;;6.63;;
40122;SDS011;25832;45.490;4.912;2022-10-16T04:21:21;8.30;;;6.68;;
40122;SDS011;25832;45.490;4.912;2022-10-16T04:23:47;19.02;;;7.35;;
40122;SDS011;25832;45.490;4.912;2022-10-16T04:26:13;12.73;;;6.28;;
40122;SDS011;25832;45.490;4.912;2022-10-16T04:28:39;12.27;;;8.00;;
40122;SDS011;25832;45.490;4.912;2022-10-16T04:31:05;10.05;;;6.45;;
40122;SDS011;25832;45.490;4.912;2022-10-16T04:33:31;13.40;;;6.57;;
40122;SDS011;25832;45.490;4.912;2022-10-16T04:35:58;9.82;;;6.38;;
40122;SDS011;25832;45.490;4.912;2022-10-16T04:38:24;9.60;;;6.50;;
40122;SDS011;25832;45.490;4.912;2022-10-16T04:40:50;10.77;;;6.70;;
40122;SDS011;25832;45.490;4.912;2022-10-16T04:43:17;11.30;;;6.97;;
40122;SDS011;25832;45.490;4.912;2022-10-16T04:45:43;11.70;;;6.80;;
40122;SDS011;25832;45.490;4.912;2022-10-16T04:48:08;8.27;;;5.47;;
40122;SDS011;25832;45.490;4.912;2022-10-16T04:50:34;10.43;;;5.68;;
40122;SDS011;25832;45.490;4.912;2022-10-16T04:52:59;13.32;;;6.65;;
40122;SDS011;25832;45.490;4.912;2022-10-16T04:55:25;9.65;;;6.45;;
40122;SDS011;25832;45.490;4.912;2022-10-16T04:57:51;8.73;;;6.43;;
40122;SDS011;25832;45.490;4.912;2022-10-16T05:00:17;7.85;;;6.15;;
40122;SDS011;25832;45.490;4.912;2022-10-16T05:02:42;10.10;;;6.63;;
40122;SDS011;25832;45.490;4.912;2022-10-16T05:05:08;13.82;;;6.55;;
40122;SDS011;25832;45.490;4.912;2022-10-16T05:07:34;9.70;;;6.47;;
40122;SDS011;25832;45.490;4.912;2022-10-16T05:09:59;11.27;;;5.97;;
40122;SDS011;25832;45.490;4.912;2022-10-16T05:12:25;10.85;;;6.22;;
40122;SDS011;25832;45.490;4.912;2022-10-16T05:14:50;8.45;;;5.60;;
40122;SDS011;25832;45.490;4.912;2022-10-16T05:17:16;9.00;;;5.43;;
40122;SDS011;25832;45.490;4.912;2022-10-16T05:19:42;10.07;;;5.90;;
40122;SDS011;25832;45.490;4.912;2022-10-16T05:22:08;7.68;;;6.13;;
40122;SDS011;25832;45.490;4.912;2022-10-16T05:24:33;11.13;;;6.10;;
40122;SDS011;25832;45.490;4.912;2022-10-16T05:26:59;13.85;;;6.28;;
40122;SDS011;25832;45.490;4.912;2022-10-16T05:29:25;9.90;;;6.03;;
40122;SDS011;25832;45.490;4.912;2022-10-16T05:31:51;9.18;;;5.57;;
40122;SDS011;25832;45.490;4.912;2022-10-16T05:34:18;11.82;;;5.75;;
40122;SDS011;25832;45.490;4.912;2022-10-16T05:36:43;11.43;;;5.75;;
40122;SDS011;25832;45.490;4.912;2022-10-16T05:39:10;8.13;;;5.97;;
40122;SDS011;25832;45.490;4.912;2022-10-16T05:41:36;7.63;;;5.63;;
40122;SDS011;25832;45.490;4.912;2022-10-16T05:44:05;11.65;;;5.82;;
40122;SDS011;25832;45.490;4.912;2022-10-16T05:46:31;6.53;;;5.10;;
40122;SDS011;25832;45.490;4.912;2022-10-16T05:48:57;10.35;;;5.82;;
40122;SDS011;25832;45.490;4.912;2022-10-16T05:51:22;8.77;;;5.22;;
40122;SDS011;25832;45.490;4.912;2022-10-16T05:53:48;8.32;;;5.45;;
40122;SDS011;25832;45.490;4.912;2022-10-16T05:56:14;7.55;;;4.60;;
40122;SDS011;25832;45.490;4.912;2022-10-16T05:58:40;10.57;;;4.85;;
40122;SDS011;25832;45.490;4.912;2022-10-16T06:01:09;11.73;;;6.03;;
40122;SDS011;25832;45.490;4.912;2022-10-16T06:03:36;11.38;;;4.70;;
40122;SDS011;25832;45.490;4.912;2022-10-16T06:06:12;11.23;;;4.40;;
40122;SDS011;25832;45.490;4.912;2022-10-16T06:08:40;11.00;;;5.72;;
40122;SDS011;25832;45.490;4.912;2022-10-16T06:11:07;9.02;;;5.00;;
40122;SDS011;25832;45.490;4.912;2022-10-16T06:13:35;8.45;;;4.35;;
40122;SDS011;25832;45.490;4.912;2022-10-16T06:16:01;7.75;;;4.60;;
40122;SDS011;25832;45.490;4.912;2022-10-16T06:18:28;6.40;;;4.18;;
40122;SDS011;25832;45.490;4.912;2022-10-16T06:20:55;12.35;;;5.75;;
40122;SDS011;25832;45.490;4.912;2022-10-16T06:23:22;6.28;;;4.13;;
40122;SDS011;25832;45.490;4.912;2022-10-16T06:25:48;8.98;;;4.65;;
40122;SDS011;25832;45.490;4.912;2022-10-16T06:28:14;7.03;;;4.30;;
40122;SDS011;25832;45.490;4.912;2022-10-16T06:30:41;7.25;;;4.40;;
40122;SDS011;25832;45.490;4.912;2022-10-16T06:33:08;5.40;;;3.83;;
40122;SDS011;25832;45.490;4.912;2022-10-16T06:35:35;7.10;;;4.25;;
40122;SDS011;25832;45.490;4.912;2022-10-16T06:38:01;10.60;;;4.97;;
40122;SDS011;25832;45.490;4.912;2022-10-16T06:40:26;8.52;;;4.53;;
40122;SDS011;25832;45.490;4.912;2022-10-16T06:42:54;5.60;;;3.97;;
40122;SDS011;25832;45.490;4.912;2022-10-16T06:45:20;7.07;;;4.03;;
40122;SDS011;25832;45.490;4.912;2022-10-16T06:47:45;7.45;;;4.10;;
40122;SDS011;25832;45.490;4.912;2022-10-16T06:50:11;9.57;;;4.22;;
40122;SDS011;25832;45.490;4.912;2022-10-16T06:52:37;8.80;;;4.88;;
40122;SDS011;25832;45.490;4.912;2022-10-16T06:55:02;17.20;;;9.73;;
40122;SDS011;25832;45.490;4.912;2022-10-16T06:57:28;6.05;;;4.28;;
40122;SDS011;25832;45.490;4.912;2022-10-16T06:59:54;6.22;;;3.55;;
40122;SDS011;25832;45.490;4.912;2022-10-16T07:02:20;9.30;;;4.13;;
40122;SDS011;25832;45.490;4.912;2022-10-16T07:04:45;5.72;;;3.80;;
40122;SDS011;25832;45.490;4.912;2022-10-16T07:07:11;7.93;;;4.05;;
40122;SDS011;25832;45.490;4.912;2022-10-16T07:09:37;10.98;;;3.95;;
40122;SDS011;25832;45.490;4.912;2022-10-16T07:12:03;6.13;;;4.28;;
40122;SDS011;25832;45.490;4.912;2022-10-16T07:14:29;6.90;;;3.90;;
40122;SDS011;25832;45.490;4.912;2022-10-16T07:16:55;5.50;;;3.60;;
40122;SDS011;25832;45.490;4.912;2022-10-16T07:19:20;5.47;;;3.50;;
40122;SDS011;25832;45.490;4.912;2022-10-16T07:21:46;8.65;;;3.90;;
40122;SDS011;25832;45.490;4.912;2022-10-16T07:24:12;6.38;;;3.88;;
40122;SDS011;25832;45.490;4.912;2022-10-16T07:26:40;4.82;;;3.65;;
40122;SDS011;25832;45.490;4.912;2022-10-16T07:29:07;6.88;;;4.00;;
40122;SDS011;25832;45.490;4.912;2022-10-16T07:31:38;5.90;;;3.40;;
40122;SDS011;25832;45.490;4.912;2022-10-16T07:34:04;7.97;;;3.03;;
40122;SDS011;25832;45.490;4.912;2022-10-16T07:36:30;10.65;;;5.03;;
40122;SDS011;25832;45.490;4.912;2022-10-16T07:38:56;6.72;;;3.50;;
40122;SDS011;25832;45.490;4.912;2022-10-16T07:41:21;9.45;;;3.95;;
40122;SDS011;25832;45.490;4.912;2022-10-16T07:43:47;5.25;;;3.70;;
40122;SDS011;25832;45.490;4.912;2022-10-16T07:46:15;7.63;;;4.00;;
40122;SDS011;25832;45.490;4.912;2022-10-16T07:48:41;7.53;;;3.55;;
40122;SDS011;25832;45.490;4.912;2022-10-16T07:51:10;7.55;;;3.00;;
40122;SDS011;25832;45.490;4.912;2022-10-16T07:53:37;7.72;;;3.88;;
40122;SDS011;25832;45.490;4.912;2022-10-16T07:56:03;4.13;;;3.47;;
40122;SDS011;25832;45.490;4.912;2022-10-16T07:58:31;5.07;;;2.90;;
40122;SDS011;25832;45.490;4.912;2022-10-16T08:00:57;7.18;;;3.60;;
40122;SDS011;25832;45.490;4.912;2022-10-16T08:03:24;7.40;;;3.85;;
40122;SDS011;25832;45.490;4.912;2022-10-16T08:05:50;6.15;;;3.63;;
40122;SDS011;25832;45.490;4.912;2022-10-16T08:08:17;7.53;;;3.97;;
40122;SDS011;25832;45.490;4.912;2022-10-16T08:10:43;7.47;;;3.60;;
40122;SDS011;25832;45.490;4.912;2022-10-16T08:13:10;4.47;;;3.50;;
40122;SDS011;25832;45.490;4.912;2022-10-16T08:15:35;7.47;;;3.60;;
40122;SDS011;25832;45.490;4.912;2022-10-16T08:18:03;5.60;;;2.78;;
40122;SDS011;25832;45.490;4.912;2022-10-16T08:20:30;8.50;;;4.82;;
40122;SDS011;25832;45.490;4.912;2022-10-16T08:22:56;6.78;;;3.40;;
40122;SDS011;25832;45.490;4.912;2022-10-16T08:25:24;7.78;;;3.60;;
40122;SDS011;25832;45.490;4.912;2022-10-16T08:27:50;7.50;;;3.50;;
40122;SDS011;25832;45.490;4.912;2022-10-16T08:30:17;8.05;;;3.95;;
40122;SDS011;25832;45.490;4.912;2022-10-16T08:32:43;6.65;;;4.25;;
40122;SDS011;25832;45.490;4.912;2022-10-16T08:35:10;5.68;;;3.50;;
40122;SDS011;25832;45.490;4.912;2022-10-16T08:37:36;7.28;;;3.50;;
40122;SDS011;25832;45.490;4.912;2022-10-16T08:40:02;7.68;;;3.42;;
40122;SDS011;25832;45.490;4.912;2022-10-16T08:51:05;12.95;;;3.40;;
40122;SDS011;25832;45.490;4.912;2022-10-16T08:56:21;6.88;;;3.40;;
40122;SDS011;25832;45.490;4.912;2022-10-16T08:58:47;5.00;;;2.75;;
40122;SDS011;25832;45.490;4.912;2022-10-16T09:01:15;8.13;;;3.33;;
40122;SDS011;25832;45.490;4.912;2022-10-16T09:12:28;5.07;;;2.95;;
40122;SDS011;25832;45.490;4.912;2022-10-16T09:20:59;5.33;;;3.53;;
40122;SDS011;25832;45.490;4.912;2022-10-16T09:23:38;4.45;;;2.80;;
40122;SDS011;25832;45.490;4.912;2022-10-16T09:26:05;6.15;;;2.55;;
40122;SDS011;25832;45.490;4.912;2022-10-16T09:28:36;3.75;;;2.97;;
40122;SDS011;25832;45.490;4.912;2022-10-16T09:31:01;5.72;;;3.67;;
40122;SDS011;25832;45.490;4.912;2022-10-16T09:33:33;4.10;;;3.22;;
40122;SDS011;25832;45.490;4.912;2022-10-16T09:36:03;5.70;;;2.97;;
40122;SDS011;25832;45.490;4.912;2022-10-16T09:38:31;4.78;;;2.75;;
40122;SDS011;25832;45.490;4.912;2022-10-16T09:41:03;5.47;;;2.97;;
40122;SDS011;25832;45.490;4.912;2022-10-16T09:43:48;4.22;;;2.15;;
40122;SDS011;25832;45.490;4.912;2022-10-16T09:46:24;3.85;;;2.80;;
40122;SDS011;25832;45.490;4.912;2022-10-16T09:48:53;5.95;;;2.85;;
40122;SDS011;25832;45.490;4.912;2022-10-16T09:53:55;3.83;;;2.50;;
40122;SDS011;25832;45.490;4.912;2022-10-16T09:56:32;5.40;;;2.72;;
40122;SDS011;25832;45.490;4.912;2022-10-16T09:59:02;6.70;;;2.28;;
40122;SDS011;25832;45.490;4.912;2022-10-16T10:01:36;6.10;;;2.90;;
40122;SDS011;25832;45.490;4.912;2022-10-16T10:04:06;4.30;;;2.50;;
40122;SDS011;25832;45.490;4.912;2022-10-16T10:06:33;3.63;;;2.53;;
40122;SDS011;25832;45.490;4.912;2022-10-16T10:09:22;2.97;;;2.20;;
40122;SDS011;25832;45.490;4.912;2022-10-16T10:22:30;4.80;;;2.38;;
40122;SDS011;25832;45.490;4.912;2022-10-16T10:25:01;6.45;;;2.40;;
40122;SDS011;25832;45.490;4.912;2022-10-16T10:31:14;10.27;;;2.90;;
40122;SDS011;25832;45.490;4.912;2022-10-16T10:46:32;5.63;;;3.15;;
40122;SDS011;25832;45.490;4.912;2022-10-16T10:54:38;5.65;;;2.78;;
40122;SDS011;25832;45.490;4.912;2022-10-16T10:59:57;9.52;;;3.22;;
40122;SDS011;25832;45.490;4.912;2022-10-16T11:02:52;8.23;;;3.55;;
40122;SDS011;25832;45.490;4.912;2022-10-16T11:05:48;7.68;;;2.92;;
40122;SDS011;25832;45.490;4.912;2022-10-16T11:11:16;8.48;;;3.67;;
40122;SDS011;25832;45.490;4.912;2022-10-16T11:16:32;4.18;;;2.90;;
40122;SDS011;25832;45.490;4.912;2022-10-16T11:19:14;5.50;;;3.38;;
40122;SDS011;25832;45.490;4.912;2022-10-16T11:22:00;5.85;;;3.35;;
40122;SDS011;25832;45.490;4.912;2022-10-16T11:24:35;4.75;;;2.47;;
40122;SDS011;25832;45.490;4.912;2022-10-16T11:27:41;11.43;;;3.70;;
40122;SDS011;25832;45.490;4.912;2022-10-16T11:30:22;6.90;;;3.28;;
40122;SDS011;25832;45.490;4.912;2022-10-16T11:37:59;9.43;;;3.15;;
40122;SDS011;25832;45.490;4.912;2022-10-16T11:40:29;4.63;;;2.35;;
40122;SDS011;25832;45.490;4.912;2022-10-16T11:43:14;7.82;;;3.40;;
40122;SDS011;25832;45.490;4.912;2022-10-16T11:45:51;4.82;;;3.40;;
40122;SDS011;25832;45.490;4.912;2022-10-16T11:48:24;4.38;;;3.17;;
40122;SDS011;25832;45.490;4.912;2022-10-16T11:51:14;5.90;;;3.60;;
40122;SDS011;25832;45.490;4.912;2022-10-16T11:53:55;4.07;;;3.45;;
40122;SDS011;25832;45.490;4.912;2022-10-16T11:56:42;6.68;;;3.28;;
40122;SDS011;25832;45.490;4.912;2022-10-16T12:04:34;7.32;;;3.53;;
40122;SDS011;25832;45.490;4.912;2022-10-16T12:07:20;5.60;;;3.20;;
40122;SDS011;25832;45.490;4.912;2022-10-16T12:09:49;4.30;;;3.17;;
40122;SDS011;25832;45.490;4.912;2022-10-16T12:15:36;4.70;;;2.83;;
40122;SDS011;25832;45.490;4.912;2022-10-16T12:17:53;5.57;;;3.88;;
40122;SDS011;25832;45.490;4.912;2022-10-16T12:22:54;6.82;;;3.58;;
40122;SDS011;25832;45.490;4.912;2022-10-16T12:25:35;6.25;;;3.13;;
40122;SDS011;25832;45.490;4.912;2022-10-16T12:28:17;7.45;;;3.13;;
40122;SDS011;25832;45.490;4.912;2022-10-16T12:30:53;8.85;;;3.03;;
40122;SDS011;25832;45.490;4.912;2022-10-16T12:33:22;5.75;;;3.30;;
40122;SDS011;25832;45.490;4.912;2022-10-16T12:35:50;7.55;;;3.45;;
40122;SDS011;25832;45.490;4.912;2022-10-16T12:38:19;8.55;;;3.25;;
40122;SDS011;25832;45.490;4.912;2022-10-16T12:41:02;6.50;;;2.88;;
40122;SDS011;25832;45.490;4.912;2022-10-16T12:43:41;4.43;;;3.10;;
40122;SDS011;25832;45.490;4.912;2022-10-16T12:48:40;5.53;;;3.25;;
40122;SDS011;25832;45.490;4.912;2022-10-16T12:53:59;6.97;;;3.08;;
40122;SDS011;25832;45.490;4.912;2022-10-16T13:25:14;4.30;;;2.75;;
40122;SDS011;25832;45.490;4.912;2022-10-16T13:28:01;5.53;;;3.15;;
40122;SDS011;25832;45.490;4.912;2022-10-16T13:30:31;3.50;;;2.95;;
40122;SDS011;25832;45.490;4.912;2022-10-16T13:35:52;6.38;;;2.92;;
40122;SDS011;25832;45.490;4.912;2022-10-16T13:38:23;5.97;;;3.13;;
40122;SDS011;25832;45.490;4.912;2022-10-16T13:43:29;4.07;;;3.10;;
40122;SDS011;25832;45.490;4.912;2022-10-16T13:45:58;5.40;;;3.22;;
40122;SDS011;25832;45.490;4.912;2022-10-16T13:48:27;8.88;;;3.70;;
40122;SDS011;25832;45.490;4.912;2022-10-16T13:53:25;6.88;;;3.47;;
40122;SDS011;25832;45.490;4.912;2022-10-16T13:55:51;5.88;;;3.25;;
40122;SDS011;25832;45.490;4.912;2022-10-16T13:58:16;8.43;;;3.17;;
40122;SDS011;25832;45.490;4.912;2022-10-16T14:03:40;8.45;;;4.03;;
40122;SDS011;25832;45.490;4.912;2022-10-16T14:06:10;6.43;;;2.97;;
40122;SDS011;25832;45.490;4.912;2022-10-16T14:08:43;8.93;;;4.03;;
40122;SDS011;25832;45.490;4.912;2022-10-16T14:11:19;5.28;;;3.20;;
40122;SDS011;25832;45.490;4.912;2022-10-16T14:13:49;3.30;;;2.63;;
40122;SDS011;25832;45.490;4.912;2022-10-16T14:16:37;5.93;;;3.08;;
40122;SDS011;25832;45.490;4.912;2022-10-16T14:19:05;7.60;;;3.28;;
40122;SDS011;25832;45.490;4.912;2022-10-16T14:21:32;10.25;;;3.15;;
40122;SDS011;25832;45.490;4.912;2022-10-16T14:23:58;6.75;;;3.28;;
40122;SDS011;25832;45.490;4.912;2022-10-16T14:26:27;3.97;;;2.65;;
40122;SDS011;25832;45.490;4.912;2022-10-16T14:29:13;6.55;;;3.25;;
40122;SDS011;25832;45.490;4.912;2022-10-16T14:31:42;3.90;;;2.70;;
40122;SDS011;25832;45.490;4.912;2022-10-16T14:34:23;7.63;;;3.85;;
40122;SDS011;25832;45.490;4.912;2022-10-16T14:36:49;4.93;;;3.72;;
40122;SDS011;25832;45.490;4.912;2022-10-16T14:39:19;6.65;;;3.45;;
40122;SDS011;25832;45.490;4.912;2022-10-16T14:41:47;5.38;;;3.08;;
40122;SDS011;25832;45.490;4.912;2022-10-16T14:44:15;5.97;;;3.40;;
40122;SDS011;25832;45.490;4.912;2022-10-16T14:46:43;4.10;;;2.63;;
40122;SDS011;25832;45.490;4.912;2022-10-16T14:51:35;5.20;;;2.80;;
40122;SDS011;25832;45.490;4.912;2022-10-16T14:54:02;6.53;;;3.10;;
40122;SDS011;25832;45.490;4.912;2022-10-16T14:56:32;5.75;;;2.75;;
40122;SDS011;25832;45.490;4.912;2022-10-16T14:59:12;6.30;;;2.97;;
40122;SDS011;25832;45.490;4.912;2022-10-16T15:01:49;4.63;;;3.38;;
40122;SDS011;25832;45.490;4.912;2022-10-16T15:04:15;4.95;;;3.10;;
40122;SDS011;25832;45.490;4.912;2022-10-16T15:06:41;6.00;;;3.40;;
40122;SDS011;25832;45.490;4.912;2022-10-16T15:09:07;5.28;;;3.28;;
40122;SDS011;25832;45.490;4.912;2022-10-16T15:11:33;5.80;;;3.50;;
40122;SDS011;25832;45.490;4.912;2022-10-16T15:13:59;10.02;;;3.33;;
40122;SDS011;25832;45.490;4.912;2022-10-16T15:16:24;4.28;;;3.13;;
40122;SDS011;25832;45.490;4.912;2022-10-16T15:18:50;4.53;;;2.83;;
40122;SDS011;25832;45.490;4.912;2022-10-16T15:21:22;5.60;;;3.72;;
40122;SDS011;25832;45.490;4.912;2022-10-16T15:23:54;4.30;;;3.40;;
40122;SDS011;25832;45.490;4.912;2022-10-16T15:26:21;14.85;;;3.60;;
40122;SDS011;25832;45.490;4.912;2022-10-16T15:28:48;8.02;;;3.22;;
40122;SDS011;25832;45.490;4.912;2022-10-16T15:31:14;4.25;;;3.28;;
40122;SDS011;25832;45.490;4.912;2022-10-16T15:33:39;5.40;;;3.10;;
40122;SDS011;25832;45.490;4.912;2022-10-16T15:36:05;6.25;;;3.88;;
40122;SDS011;25832;45.490;4.912;2022-10-16T15:38:32;5.50;;;3.55;;
40122;SDS011;25832;45.490;4.912;2022-10-16T15:40:57;8.60;;;3.55;;
40122;SDS011;25832;45.490;4.912;2022-10-16T15:43:23;7.55;;;3.17;;
40122;SDS011;25832;45.490;4.912;2022-10-16T15:46:00;8.60;;;3.50;;
40122;SDS011;25832;45.490;4.912;2022-10-16T15:48:27;4.43;;;2.95;;
40122;SDS011;25832;45.490;4.912;2022-10-16T15:50:54;8.35;;;3.30;;
40122;SDS011;25832;45.490;4.912;2022-10-16T15:53:20;4.60;;;3.53;;
40122;SDS011;25832;45.490;4.912;2022-10-16T15:55:45;13.25;;;5.93;;
40122;SDS011;25832;45.490;4.912;2022-10-16T15:58:11;5.93;;;3.30;;
40122;SDS011;25832;45.490;4.912;2022-10-16T16:00:37;4.25;;;3.70;;
40122;SDS011;25832;45.490;4.912;2022-10-16T16:03:03;8.25;;;3.90;;
40122;SDS011;25832;45.490;4.912;2022-10-16T16:05:28;5.15;;;2.95;;
40122;SDS011;25832;45.490;4.912;2022-10-16T16:07:54;6.68;;;3.42;;
40122;SDS011;25832;45.490;4.912;2022-10-16T16:10:20;7.00;;;3.78;;
40122;SDS011;25832;45.490;4.912;2022-10-16T16:12:47;7.70;;;4.07;;
40122;SDS011;25832;45.490;4.912;2022-10-16T16:15:18;5.10;;;3.08;;
40122;SDS011;25832;45.490;4.912;2022-10-16T16:17:45;3.97;;;3.05;;
40122;SDS011;25832;45.490;4.912;2022-10-16T16:20:11;5.07;;;3.45;;
40122;SDS011;25832;45.490;4.912;2022-10-16T16:22:37;4.07;;;2.97;;
40122;SDS011;25832;45.490;4.912;2022-10-16T16:25:03;4.25;;;3.13;;
40122;SDS011;25832;45.490;4.912;2022-10-16T16:27:29;5.57;;;2.92;;
40122;SDS011;25832;45.490;4.912;2022-10-16T16:29:58;6.90;;;3.50;;
40122;SDS011;25832;45.490;4.912;2022-10-16T16:32:24;5.60;;;3.15;;
40122;SDS011;25832;45.490;4.912;2022-10-16T16:34:50;5.50;;;4.05;;
40122;SDS011;25832;45.490;4.912;2022-10-16T16:37:16;4.85;;;3.72;;
40122;SDS011;25832;45.490;4.912;2022-10-16T16:39:42;8.73;;;3.67;;
40122;SDS011;25832;45.490;4.912;2022-10-16T16:42:07;4.40;;;3.33;;
40122;SDS011;25832;45.490;4.912;2022-10-16T16:44:35;7.65;;;3.15;;
40122;SDS011;25832;45.490;4.912;2022-10-16T16:47:01;6.15;;;3.50;;
40122;SDS011;25832;45.490;4.912;2022-10-16T16:49:27;4.05;;;2.70;;
40122;SDS011;25832;45.490;4.912;2022-10-16T16:51:53;9.27;;;3.60;;
40122;SDS011;25832;45.490;4.912;2022-10-16T16:54:19;6.40;;;3.63;;
40122;SDS011;25832;45.490;4.912;2022-10-16T16:56:44;4.47;;;3.33;;
40122;SDS011;25832;45.490;4.912;2022-10-16T16:59:15;3.58;;;2.95;;
40122;SDS011;25832;45.490;4.912;2022-10-16T17:01:43;6.13;;;3.22;;
40122;SDS011;25832;45.490;4.912;2022-10-16T17:04:08;7.30;;;3.38;;
40122;SDS011;25832;45.490;4.912;2022-10-16T17:06:35;7.18;;;3.70;;
40122;SDS011;25832;45.490;4.912;2022-10-16T17:09:02;7.10;;;3.45;;
40122;SDS011;25832;45.490;4.912;2022-10-16T17:11:29;4.03;;;3.03;;
40122;SDS011;25832;45.490;4.912;2022-10-16T17:13:56;6.97;;;3.67;;
40122;SDS011;25832;45.490;4.912;2022-10-16T17:16:23;6.20;;;3.40;;
40122;SDS011;25832;45.490;4.912;2022-10-16T17:18:51;5.47;;;3.40;;
40122;SDS011;25832;45.490;4.912;2022-10-16T17:21:18;5.72;;;3.42;;
40122;SDS011;25832;45.490;4.912;2022-10-16T17:23:44;5.35;;;3.20;;